Time;durP1;ratioP1;P1;durP2;ratioP2;P2;SDS_P1;SDS_P2;PMS_P1;PMS_P2;Temp;Humidity;BMP_temperature;BMP_pressure;BME280_temperature;BME280_humidity;BME280_pressure;Samples;Min_cycle;Max_cycle;Signal;HPM_P1;HPM_P2
2023/09/29 00:00:23;;;;;;;6.47;4.70;;;11.50;99.90;;;;;;4967302;28;20964;-61
2023/09/29 00:02:50;;;;;;;9.27;5.10;;;11.50;99.90;;;;;;4963149;28;20602;-62
2023/09/29 00:05:18;;;;;;;10.17;4.73;;;11.40;99.90;;;;;;4961577;28;20178;-61
2023/09/29 00:07:43;;;;;;;6.90;4.80;;;11.40;99.90;;;;;;4962328;28;21172;-61
2023/09/29 00:10:13;;;;;;;6.57;4.83;;;11.40;99.90;;;;;;4972476;28;20444;-60
2023/09/29 00:12:39;;;;;;;9.53;4.90;;;11.30;99.90;;;;;;4962707;28;20264;-60
2023/09/29 00:15:06;;;;;;;12.47;5.50;;;11.30;99.90;;;;;;4959194;28;21109;-61
2023/09/29 00:17:32;;;;;;;7.00;4.63;;;11.30;99.90;;;;;;4958539;28;20452;-61
2023/09/29 00:20:06;;;;;;;6.00;4.53;;;11.30;99.90;;;;;;4960155;28;20433;-61
2023/09/29 00:22:32;;;;;;;14.13;5.50;;;11.30;99.90;;;;;;4960398;28;20432;-62
2023/09/29 00:24:57;;;;;;;6.10;4.80;;;11.30;99.90;;;;;;4957932;28;20444;-62
2023/09/29 00:27:23;;;;;;;8.57;4.60;;;11.20;99.90;;;;;;4955800;28;20194;-61
2023/09/29 00:29:49;;;;;;;8.80;5.03;;;11.30;99.90;;;;;;4956767;28;20285;-62
2023/09/29 00:32:14;;;;;;;6.53;5.00;;;11.20;99.90;;;;;;4959741;28;20280;-61
2023/09/29 00:34:41;;;;;;;9.47;4.93;;;11.20;99.90;;;;;;4957029;28;20181;-61
2023/09/29 00:37:09;;;;;;;6.67;4.60;;;11.20;99.90;;;;;;4958223;28;20269;-61
2023/09/29 00:39:35;;;;;;;7.60;5.27;;;11.20;99.90;;;;;;4957162;28;21103;-61
2023/09/29 00:42:03;;;;;;;6.67;4.60;;;11.20;99.90;;;;;;4958625;28;20473;-62
2023/09/29 00:44:28;;;;;;;10.50;4.70;;;11.10;99.90;;;;;;4958257;28;20437;-62
2023/09/29 00:46:54;;;;;;;9.80;5.00;;;11.10;99.90;;;;;;4959268;28;20604;-61
2023/09/29 00:49:23;;;;;;;5.90;4.80;;;11.10;99.90;;;;;;4956468;28;20188;-60
2023/09/29 00:51:49;;;;;;;9.47;5.30;;;11.00;99.90;;;;;;4954544;28;20445;-62
2023/09/29 00:54:15;;;;;;;10.03;4.90;;;11.00;99.90;;;;;;4961515;28;20456;-60
2023/09/29 00:56:40;;;;;;;10.03;5.13;;;11.00;99.90;;;;;;4957740;28;23739;-62
2023/09/29 00:59:09;;;;;;;5.90;4.87;;;11.00;99.90;;;;;;4956805;28;20263;-61
2023/09/29 01:01:35;;;;;;;9.53;5.57;;;10.90;99.90;;;;;;4958303;28;20204;-61
2023/09/29 01:04:00;;;;;;;9.50;5.60;;;10.90;99.90;;;;;;4960042;28;20460;-61
2023/09/29 01:06:29;;;;;;;8.67;4.50;;;10.90;99.90;;;;;;4958103;28;20316;-62
2023/09/29 01:08:59;;;;;;;6.33;4.90;;;10.90;99.90;;;;;;4959204;28;20273;-61
2023/09/29 01:11:24;;;;;;;7.70;5.23;;;10.80;99.90;;;;;;4961303;28;20429;-61
2023/09/29 01:13:51;;;;;;;7.40;5.00;;;10.80;99.90;;;;;;4960562;28;20480;-60
2023/09/29 01:16:17;;;;;;;6.30;4.60;;;10.80;99.90;;;;;;4963527;28;20356;-62
2023/09/29 01:18:43;;;;;;;7.07;5.00;;;10.80;99.90;;;;;;4964968;28;20456;-60
2023/09/29 01:21:09;;;;;;;6.60;4.50;;;10.80;99.90;;;;;;4960513;28;20272;-61
2023/09/29 01:23:34;;;;;;;7.33;4.80;;;10.80;99.90;;;;;;4962803;28;20539;-61
2023/09/29 01:26:02;;;;;;;9.80;4.93;;;10.80;99.90;;;;;;4958105;28;20178;-61
2023/09/29 01:28:28;;;;;;;13.37;4.40;;;10.70;99.90;;;;;;4959045;28;20190;-62
2023/09/29 01:30:54;;;;;;;6.97;4.93;;;10.70;99.90;;;;;;4960047;28;20447;-61
2023/09/29 01:33:22;;;;;;;6.90;5.33;;;10.70;99.90;;;;;;4963673;28;20208;-61
2023/09/29 01:35:48;;;;;;;7.83;5.20;;;10.70;99.90;;;;;;4963638;28;20190;-61
2023/09/29 01:38:14;;;;;;;6.17;4.73;;;10.70;99.90;;;;;;4963631;28;20468;-60
2023/09/29 01:40:40;;;;;;;8.70;5.40;;;10.70;99.90;;;;;;4961010;28;20448;-58
2023/09/29 01:43:06;;;;;;;10.17;5.93;;;10.70;99.90;;;;;;4963229;28;20221;-62
2023/09/29 01:45:32;;;;;;;8.50;5.23;;;10.70;99.90;;;;;;4960117;28;20500;-62
2023/09/29 01:48:00;;;;;;;6.07;4.53;;;10.70;99.90;;;;;;4960646;28;20636;-61
2023/09/29 01:50:26;;;;;;;13.10;4.80;;;10.70;99.90;;;;;;4962518;28;20440;-61
2023/09/29 01:52:52;;;;;;;5.97;4.87;;;10.60;99.90;;;;;;4957395;28;20475;-60
2023/09/29 01:55:24;;;;;;;7.80;4.87;;;10.60;99.90;;;;;;4958936;28;21117;-62
2023/09/29 01:57:54;;;;;;;9.43;5.77;;;10.60;99.90;;;;;;4959308;28;20465;-61
2023/09/29 02:00:30;;;;;;;8.33;5.00;;;10.60;99.90;;;;;;4959438;28;20548;-62
2023/09/29 02:02:56;;;;;;;11.37;4.83;;;10.60;99.90;;;;;;4964066;28;20436;-61
2023/09/29 02:05:22;;;;;;;10.43;4.97;;;10.50;99.90;;;;;;4962518;28;20437;-60
2023/09/29 02:07:49;;;;;;;9.80;5.50;;;10.50;99.90;;;;;;4960810;28;20464;-62
2023/09/29 02:10:20;;;;;;;10.13;5.13;;;10.50;99.90;;;;;;4959061;28;20460;-61
2023/09/29 02:12:53;;;;;;;6.47;5.10;;;10.50;99.90;;;;;;4958178;28;20472;-61
2023/09/29 02:15:19;;;;;;;10.27;5.20;;;10.50;99.90;;;;;;4977854;28;21128;-62
2023/09/29 02:17:48;;;;;;;8.50;5.37;;;10.50;99.90;;;;;;4958412;28;20464;-62
2023/09/29 02:20:29;;;;;;;7.60;5.40;;;10.50;99.90;;;;;;4960648;28;20488;-62
2023/09/29 02:22:56;;;;;;;7.53;5.20;;;10.40;99.90;;;;;;4962128;28;20874;-62
2023/09/29 02:25:25;;;;;;;10.93;5.50;;;10.40;99.90;;;;;;4958489;28;20433;-61
2023/09/29 02:27:55;;;;;;;8.20;5.13;;;10.40;99.90;;;;;;4961512;28;20465;-61
2023/09/29 02:30:21;;;;;;;10.50;4.97;;;10.40;99.90;;;;;;4961707;28;20429;-61
2023/09/29 02:32:47;;;;;;;13.60;5.60;;;10.40;99.90;;;;;;4958302;28;20523;-61
2023/09/29 02:35:13;;;;;;;7.73;5.73;;;10.30;99.90;;;;;;4962294;28;20557;-62
2023/09/29 02:37:39;;;;;;;7.90;5.10;;;10.30;99.90;;;;;;4960428;28;20523;-61
2023/09/29 02:40:14;;;;;;;9.13;5.63;;;10.30;99.90;;;;;;4953965;28;20196;-61
2023/09/29 02:42:42;;;;;;;13.90;5.90;;;10.20;99.90;;;;;;4959794;28;20169;-62
2023/09/29 02:45:09;;;;;;;6.40;5.17;;;10.20;99.90;;;;;;4957687;28;20429;-62
2023/09/29 02:47:42;;;;;;;6.63;4.80;;;10.20;99.90;;;;;;4959484;28;20453;-61
2023/09/29 02:50:09;;;;;;;10.23;5.10;;;10.20;99.90;;;;;;4959398;28;20520;-62
2023/09/29 02:52:36;;;;;;;6.67;4.50;;;10.20;99.90;;;;;;4957232;28;20476;-61
2023/09/29 02:55:04;;;;;;;7.63;5.70;;;10.20;99.90;;;;;;4963841;28;20540;-62
2023/09/29 02:57:30;;;;;;;7.90;5.37;;;10.20;99.90;;;;;;4959828;28;20457;-61
2023/09/29 02:59:57;;;;;;;8.40;5.63;;;10.20;99.90;;;;;;4956395;28;20500;-61
2023/09/29 03:02:23;;;;;;;7.90;5.30;;;10.10;99.90;;;;;;4958952;28;20201;-61
2023/09/29 03:04:49;;;;;;;9.50;5.20;;;10.10;99.90;;;;;;4960277;28;20492;-63
2023/09/29 03:07:15;;;;;;;9.60;5.77;;;10.10;99.90;;;;;;4962145;28;20194;-61
2023/09/29 03:09:41;;;;;;;8.30;4.90;;;10.10;99.90;;;;;;4958129;28;20457;-61
2023/09/29 03:12:07;;;;;;;12.40;5.73;;;10.10;99.90;;;;;;4961319;28;20655;-61
2023/09/29 03:14:34;;;;;;;10.80;4.87;;;10.10;99.90;;;;;;4962207;28;22562;-62
2023/09/29 03:17:02;;;;;;;8.70;5.93;;;10.10;99.90;;;;;;4959912;28;20519;-61
2023/09/29 03:19:30;;;;;;;7.93;5.33;;;10.10;99.90;;;;;;4955098;28;21204;-62
2023/09/29 03:21:58;;;;;;;7.80;5.40;;;10.10;99.90;;;;;;4961232;28;20429;-60
2023/09/29 03:24:27;;;;;;;6.90;5.57;;;10.10;99.90;;;;;;4957218;28;20433;-62
2023/09/29 03:26:53;;;;;;;8.37;6.40;;;10.00;99.90;;;;;;4958315;28;20526;-61
2023/09/29 03:29:19;;;;;;;8.50;5.13;;;10.00;99.90;;;;;;4960641;28;20472;-61
2023/09/29 03:31:46;;;;;;;7.93;5.20;;;10.00;99.90;;;;;;4957158;28;20324;-61
2023/09/29 03:34:12;;;;;;;9.63;5.70;;;10.00;99.90;;;;;;4971861;28;20186;-61
2023/09/29 03:36:38;;;;;;;9.67;5.43;;;10.00;99.90;;;;;;4960812;28;20459;-61
2023/09/29 03:39:08;;;;;;;9.00;5.70;;;10.00;99.90;;;;;;4961520;28;20688;-62
2023/09/29 03:41:35;;;;;;;8.90;5.47;;;10.00;99.90;;;;;;4958236;28;20493;-62
2023/09/29 03:44:00;;;;;;;7.07;5.43;;;10.00;99.90;;;;;;4961625;28;20893;-62
2023/09/29 03:46:28;;;;;;;9.90;5.30;;;10.00;99.90;;;;;;4959110;28;20201;-61
2023/09/29 03:48:54;;;;;;;9.10;5.13;;;10.00;99.90;;;;;;4961465;28;20190;-63
2023/09/29 03:51:24;;;;;;;12.37;5.73;;;10.00;99.90;;;;;;4954999;28;20442;-62
2023/09/29 03:53:54;;;;;;;8.70;5.60;;;10.00;99.90;;;;;;4972068;28;20268;-61
2023/09/29 03:56:23;;;;;;;8.23;5.20;;;10.00;99.90;;;;;;4960389;28;20453;-60
2023/09/29 03:58:49;;;;;;;9.07;4.77;;;9.90;99.90;;;;;;4965954;28;20894;-62
2023/09/29 04:01:15;;;;;;;12.30;5.17;;;9.90;99.90;;;;;;4961016;28;20492;-62
2023/09/29 04:03:42;;;;;;;7.30;5.30;;;9.90;99.90;;;;;;4976388;28;20433;-59
2023/09/29 04:06:08;;;;;;;9.50;5.30;;;9.90;99.90;;;;;;4964200;28;20829;-59
2023/09/29 04:08:33;;;;;;;8.00;5.67;;;9.80;99.90;;;;;;4959538;28;20509;-61
2023/09/29 04:10:59;;;;;;;8.33;5.90;;;9.90;99.90;;;;;;4976344;28;20182;-61
2023/09/29 04:13:24;;;;;;;12.20;5.87;;;9.80;99.90;;;;;;4960810;28;20216;-60
2023/09/29 04:15:51;;;;;;;9.00;6.87;;;9.80;99.90;;;;;;4962029;28;20273;-61
2023/09/29 04:18:17;;;;;;;8.97;6.60;;;9.80;99.90;;;;;;4961686;28;20696;-60
2023/09/29 04:20:42;;;;;;;8.03;6.00;;;9.80;99.90;;;;;;4958492;28;20445;-62
2023/09/29 04:23:08;;;;;;;8.13;5.43;;;9.80;99.90;;;;;;4957537;28;20174;-62
2023/09/29 04:25:34;;;;;;;7.60;5.53;;;9.80;99.90;;;;;;4958528;28;20217;-61
2023/09/29 04:27:59;;;;;;;8.13;5.07;;;9.80;99.90;;;;;;4954020;28;20219;-61
2023/09/29 04:30:25;;;;;;;13.70;6.17;;;9.80;99.90;;;;;;4954067;28;20621;-61
2023/09/29 04:32:52;;;;;;;16.13;7.40;;;9.70;99.90;;;;;;4960507;28;20221;-61
2023/09/29 04:35:18;;;;;;;9.53;6.30;;;9.70;99.90;;;;;;4958202;28;20596;-61
2023/09/29 04:37:44;;;;;;;10.20;6.10;;;9.70;99.90;;;;;;4966820;28;20540;-61
2023/09/29 04:40:11;;;;;;;8.40;5.70;;;9.80;99.90;;;;;;4960782;28;20638;-60
2023/09/29 04:42:37;;;;;;;8.03;5.90;;;9.70;99.90;;;;;;4962020;28;20189;-59
2023/09/29 04:45:04;;;;;;;8.63;6.03;;;9.80;99.90;;;;;;4963688;28;20618;-59
2023/09/29 04:47:30;;;;;;;10.13;5.20;;;9.70;99.90;;;;;;4961638;28;20539;-63
2023/09/29 04:49:56;;;;;;;13.10;5.80;;;9.70;99.90;;;;;;4963629;28;20572;-63
2023/09/29 04:52:21;;;;;;;9.17;5.97;;;9.70;99.90;;;;;;4958775;28;20687;-63
2023/09/29 04:54:48;;;;;;;9.03;5.57;;;9.70;99.90;;;;;;4964920;28;20170;-63
2023/09/29 04:57:13;;;;;;;9.50;5.97;;;9.70;99.90;;;;;;4966773;28;20193;-64
2023/09/29 04:59:40;;;;;;;15.57;6.67;;;9.70;99.90;;;;;;4963001;28;20616;-64
2023/09/29 05:02:05;;;;;;;15.77;6.20;;;9.70;99.90;;;;;;4960418;28;20192;-65
2023/09/29 05:04:32;;;;;;;12.57;6.90;;;9.80;99.90;;;;;;4962386;28;20421;-63
2023/09/29 05:06:58;;;;;;;10.03;6.20;;;9.70;99.90;;;;;;4963934;28;20197;-64
2023/09/29 05:09:23;;;;;;;10.10;5.47;;;9.70;99.90;;;;;;4964714;28;20445;-64
2023/09/29 05:11:49;;;;;;;15.37;9.20;;;9.70;99.90;;;;;;4964374;28;20178;-63
2023/09/29 05:14:15;;;;;;;17.90;10.30;;;9.70;99.90;;;;;;4967300;28;20181;-63
2023/09/29 05:16:40;;;;;;;18.37;9.50;;;9.70;99.90;;;;;;4960001;28;20201;-64
2023/09/29 05:19:06;;;;;;;15.33;7.57;;;9.70;99.90;;;;;;4961430;28;22308;-62
2023/09/29 05:21:32;;;;;;;12.03;6.87;;;9.60;99.90;;;;;;4964370;28;20178;-61
2023/09/29 05:23:58;;;;;;;11.07;7.40;;;9.60;99.90;;;;;;4964554;28;20206;-61
2023/09/29 05:26:23;;;;;;;11.80;7.87;;;9.60;99.90;;;;;;4965426;28;20193;-62
2023/09/29 05:28:53;;;;;;;9.13;5.97;;;9.60;99.90;;;;;;4962246;28;20264;-61
2023/09/29 05:31:19;;;;;;;12.17;6.90;;;9.60;99.90;;;;;;4958804;28;20274;-62
2023/09/29 05:33:45;;;;;;;11.93;7.97;;;9.60;99.90;;;;;;4964807;28;20897;-61
2023/09/29 05:36:10;;;;;;;17.20;9.13;;;9.60;99.90;;;;;;4963299;28;20712;-61
2023/09/29 05:38:36;;;;;;;16.30;8.43;;;9.60;99.90;;;;;;4959043;28;20764;-62
2023/09/29 05:41:02;;;;;;;13.57;7.57;;;9.60;99.90;;;;;;4964407;28;20196;-62
2023/09/29 05:43:27;;;;;;;14.13;7.60;;;9.70;99.90;;;;;;4959719;28;20174;-61
2023/09/29 05:45:53;;;;;;;10.63;7.40;;;9.70;99.90;;;;;;4959989;28;20178;-62
2023/09/29 05:48:19;;;;;;;9.83;7.03;;;9.70;99.90;;;;;;4962259;28;20210;-64
2023/09/29 05:50:44;;;;;;;10.87;6.60;;;9.70;99.90;;;;;;4964494;28;20694;-61
2023/09/29 05:53:11;;;;;;;13.50;8.00;;;9.70;99.90;;;;;;4962340;28;20178;-62
2023/09/29 05:55:40;;;;;;;16.43;6.87;;;9.80;99.90;;;;;;4958754;28;20217;-61
2023/09/29 05:58:05;;;;;;;11.07;7.70;;;9.80;99.90;;;;;;4953165;28;20528;-61
2023/09/29 06:00:31;;;;;;;19.60;8.17;;;9.90;99.90;;;;;;4957327;28;20841;-62
2023/09/29 06:02:59;;;;;;;11.70;6.90;;;9.90;99.90;;;;;;4963587;28;20261;-61
2023/09/29 06:05:25;;;;;;;7.27;6.40;;;9.90;99.90;;;;;;4965504;28;20185;-62
2023/09/29 06:07:51;;;;;;;9.07;6.60;;;10.00;99.90;;;;;;4962852;28;20455;-62
2023/09/29 06:10:17;;;;;;;11.77;7.77;;;10.00;99.90;;;;;;4969063;28;20424;-62
2023/09/29 06:12:42;;;;;;;17.50;7.10;;;10.00;99.90;;;;;;4962871;28;20658;-62
2023/09/29 06:15:09;;;;;;;10.53;6.93;;;10.00;99.90;;;;;;4969189;28;20186;-61
2023/09/29 06:17:35;;;;;;;12.00;6.73;;;10.00;99.90;;;;;;4963623;28;20615;-62
2023/09/29 06:20:01;;;;;;;10.33;7.10;;;10.10;99.90;;;;;;4961208;28;20483;-61
2023/09/29 06:22:26;;;;;;;13.03;7.10;;;10.10;99.90;;;;;;4962705;28;20269;-63
2023/09/29 06:24:52;;;;;;;12.37;7.17;;;10.10;99.90;;;;;;4965944;28;20185;-62
2023/09/29 06:27:18;;;;;;;10.20;7.20;;;10.10;99.90;;;;;;4963736;28;20193;-62
2023/09/29 06:29:52;;;;;;;13.73;7.27;;;10.10;99.90;;;;;;4958019;28;20570;-61
2023/09/29 06:32:18;;;;;;;10.87;7.60;;;10.20;99.90;;;;;;4968288;28;20197;-61
2023/09/29 06:34:44;;;;;;;9.93;6.90;;;10.30;99.90;;;;;;4964523;28;20438;-61
2023/09/29 06:37:09;;;;;;;12.03;6.93;;;10.30;99.90;;;;;;4965836;28;20194;-60
2023/09/29 06:39:36;;;;;;;9.87;7.53;;;10.40;99.90;;;;;;4967318;28;20202;-62
2023/09/29 06:42:02;;;;;;;9.90;7.70;;;10.50;99.90;;;;;;4969888;28;20224;-61
2023/09/29 06:44:28;;;;;;;11.40;6.70;;;10.60;99.90;;;;;;4961012;28;20457;-61
2023/09/29 06:46:54;;;;;;;11.40;7.60;;;10.60;99.90;;;;;;4963526;28;20484;-61
2023/09/29 06:49:19;;;;;;;14.23;6.70;;;10.70;99.90;;;;;;4964546;28;20183;-62
2023/09/29 06:51:45;;;;;;;15.17;7.23;;;10.80;99.90;;;;;;4967387;28;20189;-60
2023/09/29 06:54:11;;;;;;;15.40;7.20;;;11.00;99.90;;;;;;4968340;28;20190;-60
2023/09/29 06:56:37;;;;;;;15.17;7.17;;;11.10;99.90;;;;;;4966884;28;20205;-61
2023/09/29 06:59:02;;;;;;;9.27;6.30;;;11.30;99.90;;;;;;4966599;28;20587;-60
2023/09/29 07:01:28;;;;;;;11.77;7.07;;;11.40;99.90;;;;;;4969698;28;20443;-60
2023/09/29 07:03:54;;;;;;;12.63;6.73;;;11.50;99.90;;;;;;4963009;28;20178;-61
2023/09/29 07:06:24;;;;;;;9.10;6.77;;;11.70;99.90;;;;;;4970906;28;20194;-60
2023/09/29 07:08:50;;;;;;;10.07;7.17;;;11.80;99.90;;;;;;4971133;28;20437;-60
2023/09/29 07:11:16;;;;;;;10.80;7.00;;;11.90;99.90;;;;;;4970445;28;20429;-61
2023/09/29 07:13:42;;;;;;;11.17;7.53;;;11.90;99.90;;;;;;4967006;28;20892;-60
2023/09/29 07:16:07;;;;;;;17.00;8.23;;;12.00;99.90;;;;;;4962706;28;20186;-60
2023/09/29 07:18:33;;;;;;;12.73;7.97;;;12.10;99.90;;;;;;4964696;28;20223;-61
2023/09/29 07:20:59;;;;;;;10.67;7.80;;;12.20;99.90;;;;;;4968480;28;20209;-60
2023/09/29 07:23:25;;;;;;;12.33;8.67;;;12.30;99.90;;;;;;4967747;28;20879;-60
2023/09/29 07:25:54;;;;;;;12.50;7.80;;;12.40;99.90;;;;;;4969170;28;20182;-61
2023/09/29 07:28:23;;;;;;;13.07;8.83;;;12.40;99.90;;;;;;4970547;28;20515;-60
2023/09/29 07:30:50;;;;;;;10.93;7.80;;;12.50;99.90;;;;;;4965897;28;20508;-60
2023/09/29 07:33:16;;;;;;;17.70;8.23;;;12.50;99.90;;;;;;4967175;28;20481;-61
2023/09/29 07:35:45;;;;;;;20.03;8.87;;;12.60;99.90;;;;;;4973128;28;20459;-61
2023/09/29 07:38:12;;;;;;;17.43;8.23;;;12.70;99.90;;;;;;4966687;28;20899;-61
2023/09/29 07:40:38;;;;;;;11.27;7.60;;;12.70;99.90;;;;;;4966964;28;20449;-61
2023/09/29 07:43:04;;;;;;;17.70;8.67;;;12.80;99.90;;;;;;4973141;28;20911;-60
2023/09/29 07:45:31;;;;;;;15.90;8.70;;;12.90;99.90;;;;;;4964514;28;20987;-61
2023/09/29 07:47:57;;;;;;;16.30;8.90;;;12.90;99.90;;;;;;4966889;28;20453;-60
2023/09/29 07:50:23;;;;;;;13.20;7.87;;;13.00;99.90;;;;;;4963947;28;20512;-60
2023/09/29 07:52:48;;;;;;;11.03;7.83;;;13.00;99.90;;;;;;4966285;28;20177;-62
2023/09/29 07:55:14;;;;;;;11.20;7.73;;;13.10;99.90;;;;;;4963626;28;20320;-61
2023/09/29 07:57:40;;;;;;;11.67;7.30;;;13.20;99.90;;;;;;4963932;28;20280;-61
2023/09/29 08:00:09;;;;;;;11.67;7.37;;;13.20;99.90;;;;;;4982798;28;20261;-61
2023/09/29 08:02:34;;;;;;;12.10;7.67;;;13.30;99.90;;;;;;4960460;28;20185;-61
2023/09/29 08:05:01;;;;;;;15.90;7.67;;;13.40;99.90;;;;;;4957656;28;20530;-61
2023/09/29 08:07:27;;;;;;;14.30;7.83;;;13.50;99.90;;;;;;4960505;28;20224;-61
2023/09/29 08:09:53;;;;;;;11.50;8.20;;;13.60;99.90;;;;;;4964262;28;20477;-61
2023/09/29 08:12:19;;;;;;;13.43;8.70;;;13.60;99.90;;;;;;4966334;28;20462;-61
2023/09/29 08:14:44;;;;;;;11.77;8.23;;;13.70;99.90;;;;;;4959203;28;20831;-61
2023/09/29 08:17:10;;;;;;;16.60;8.50;;;13.70;99.90;;;;;;4962861;28;20197;-61
2023/09/29 08:19:35;;;;;;;12.60;7.57;;;13.80;99.90;;;;;;4962688;28;20876;-62
2023/09/29 08:22:02;;;;;;;11.30;7.87;;;13.90;99.90;;;;;;4962939;28;20181;-61
2023/09/29 08:24:31;;;;;;;13.30;8.53;;;14.00;99.90;;;;;;4960960;28;20591;-61
2023/09/29 08:26:57;;;;;;;11.10;8.13;;;14.10;99.90;;;;;;4963092;28;20504;-62
2023/09/29 08:29:23;;;;;;;12.23;8.70;;;14.30;99.90;;;;;;4963437;28;20981;-61
2023/09/29 08:31:49;;;;;;;14.97;8.33;;;14.50;99.90;;;;;;4966889;28;20194;-61
2023/09/29 08:34:14;;;;;;;11.27;7.90;;;14.70;99.90;;;;;;4959156;28;20867;-62
2023/09/29 08:36:41;;;;;;;16.43;7.73;;;14.80;99.90;;;;;;4964842;28;20240;-60
2023/09/29 08:39:06;;;;;;;12.00;7.80;;;14.90;99.90;;;;;;4964896;28;20206;-61
2023/09/29 08:41:34;;;;;;;13.67;8.80;;;15.00;99.90;;;;;;4964535;28;20433;-62
2023/09/29 08:44:02;;;;;;;15.50;8.73;;;15.10;99.90;;;;;;4964495;28;20174;-61
2023/09/29 08:46:29;;;;;;;14.43;8.93;;;15.20;99.90;;;;;;4964989;28;20979;-61
2023/09/29 08:48:55;;;;;;;14.90;8.47;;;15.30;99.90;;;;;;4964567;28;20433;-61
2023/09/29 08:51:22;;;;;;;12.60;7.93;;;15.40;99.90;;;;;;4960675;28;20436;-61
2023/09/29 08:53:50;;;;;;;17.60;8.67;;;15.50;99.90;;;;;;4965834;28;20468;-61
2023/09/29 08:56:17;;;;;;;15.60;10.00;;;15.60;99.90;;;;;;4966219;28;20995;-61
2023/09/29 08:58:43;;;;;;;17.53;9.07;;;15.60;99.90;;;;;;4959410;28;20457;-61
2023/09/29 09:01:09;;;;;;;14.63;9.00;;;15.70;99.90;;;;;;4967569;28;20429;-60
2023/09/29 09:03:35;;;;;;;13.30;8.87;;;15.70;99.90;;;;;;4966144;28;20185;-61
2023/09/29 09:06:01;;;;;;;16.20;9.63;;;15.80;99.90;;;;;;4962821;28;20174;-60
2023/09/29 09:08:27;;;;;;;17.03;8.03;;;15.90;99.90;;;;;;4962426;28;20213;-61
2023/09/29 09:11:00;;;;;;;15.00;8.60;;;16.10;99.90;;;;;;4966214;28;20468;-61
2023/09/29 09:13:26;;;;;;;16.20;8.90;;;16.30;99.90;;;;;;4964536;28;20201;-61
2023/09/29 09:15:58;;;;;;;13.30;8.27;;;16.50;99.90;;;;;;4964690;28;20476;-61
2023/09/29 09:18:27;;;;;;;18.27;8.57;;;16.70;99.90;;;;;;4964237;28;20209;-62
2023/09/29 09:20:54;;;;;;;19.87;7.80;;;16.90;99.90;;;;;;4965095;28;20443;-61
2023/09/29 09:23:20;;;;;;;18.67;7.30;;;17.10;99.90;;;;;;4962405;28;20439;-62
2023/09/29 09:25:45;;;;;;;11.33;7.00;;;17.30;99.90;;;;;;4963112;28;20544;-62
2023/09/29 09:28:19;;;;;;;15.33;7.70;;;17.50;99.90;;;;;;4961566;28;21184;-62
2023/09/29 09:30:46;;;;;;;13.67;6.63;;;17.60;99.90;;;;;;4966185;28;20249;-61
2023/09/29 09:33:21;;;;;;;15.17;6.80;;;17.80;99.90;;;;;;4963277;28;20440;-61
2023/09/29 09:35:49;;;;;;;12.33;6.60;;;18.00;99.90;;;;;;4968543;28;20487;-61
2023/09/29 09:38:15;;;;;;;9.53;6.03;;;18.20;99.90;;;;;;4971552;28;20492;-62
2023/09/29 09:40:43;;;;;;;9.80;5.93;;;18.30;99.90;;;;;;4970931;28;20471;-63
2023/09/29 09:43:10;;;;;;;15.20;6.20;;;18.50;99.90;;;;;;4969382;28;20178;-61
2023/09/29 09:45:40;;;;;;;12.10;6.70;;;18.70;99.90;;;;;;4963328;28;21603;-62
2023/09/29 09:48:09;;;;;;;10.77;6.07;;;18.80;92.40;;;;;;4955360;28;20460;-62
2023/09/29 09:50:38;;;;;;;7.33;5.43;;;19.00;92.60;;;;;;4964264;28;20437;-62
2023/09/29 09:53:08;;;;;;;16.47;6.20;;;19.10;91.10;;;;;;4966829;28;20443;-61
2023/09/29 09:55:39;;;;;;;13.70;5.40;;;19.20;89.10;;;;;;4982430;28;20433;-62
2023/09/29 09:58:12;;;;;;;9.53;5.50;;;19.40;82.80;;;;;;4956027;28;20514;-62
2023/09/29 10:00:40;;;;;;;8.20;5.40;;;19.60;80.20;;;;;;4962122;28;22158;-62
2023/09/29 10:03:14;;;;;;;8.67;5.63;;;19.70;78.20;;;;;;4966116;28;20421;-62
2023/09/29 10:05:42;;;;;;;11.20;5.50;;;19.80;77.90;;;;;;4966786;28;21208;-62
2023/09/29 10:08:10;;;;;;;9.17;5.53;;;20.00;78.60;;;;;;4968847;28;20461;-61
2023/09/29 10:10:41;;;;;;;7.60;5.20;;;20.10;78.80;;;;;;4967943;28;20542;-61
2023/09/29 10:13:11;;;;;;;10.87;5.87;;;20.30;77.00;;;;;;4964623;28;20439;-62
2023/09/29 10:15:40;;;;;;;14.27;5.50;;;20.50;75.80;;;;;;4966980;28;20417;-63
2023/09/29 10:18:19;;;;;;;6.23;4.80;;;20.60;74.90;;;;;;4964034;28;20465;-62
2023/09/29 10:21:00;;;;;;;9.10;5.30;;;20.80;73.30;;;;;;4963369;28;20824;-63
2023/09/29 10:23:26;;;;;;;9.67;5.00;;;20.80;72.40;;;;;;4971653;28;20437;-62
2023/09/29 10:26:00;;;;;;;8.43;5.13;;;20.90;71.30;;;;;;4966789;28;21145;-59
2023/09/29 10:28:33;;;;;;;11.60;5.67;;;21.00;70.50;;;;;;4964862;28;20498;-58
2023/09/29 10:31:13;;;;;;;8.30;4.60;;;21.00;70.70;;;;;;4963713;28;20436;-59
2023/09/29 10:33:53;;;;;;;11.13;4.97;;;21.20;68.10;;;;;;4955935;28;20433;-60
2023/09/29 10:36:23;;;;;;;6.37;5.20;;;21.10;66.00;;;;;;4960205;28;20484;-60
2023/09/29 10:38:50;;;;;;;9.90;5.10;;;21.00;66.50;;;;;;4964901;28;20461;-59
2023/09/29 10:41:18;;;;;;;7.10;5.40;;;20.80;67.00;;;;;;4961540;28;20500;-59
2023/09/29 10:43:47;;;;;;;11.50;6.07;;;20.70;67.70;;;;;;4964018;28;20438;-59
2023/09/29 10:46:15;;;;;;;12.30;6.20;;;20.80;69.20;;;;;;4962249;28;20429;-59
2023/09/29 10:48:45;;;;;;;5.33;4.10;;;20.90;68.50;;;;;;4964617;28;20443;-60
2023/09/29 10:51:24;;;;;;;13.97;5.00;;;21.10;68.00;;;;;;4959854;28;20512;-60
2023/09/29 10:53:50;;;;;;;5.83;4.70;;;21.40;68.10;;;;;;4964320;28;20429;-58
2023/09/29 10:56:24;;;;;;;12.70;5.13;;;21.60;67.20;;;;;;4957777;28;20438;-59
2023/09/29 10:58:52;;;;;;;8.87;4.80;;;21.90;65.10;;;;;;4961810;28;20468;-60
2023/09/29 11:01:32;;;;;;;10.07;4.57;;;22.00;64.60;;;;;;4965347;28;20439;-60
2023/09/29 11:03:58;;;;;;;8.27;5.60;;;22.20;64.60;;;;;;4958880;28;21140;-61
2023/09/29 11:06:24;;;;;;;10.80;4.87;;;22.30;63.10;;;;;;4960504;28;21211;-59
2023/09/29 11:08:55;;;;;;;7.07;4.97;;;22.50;63.60;;;;;;4961397;28;20428;-59
2023/09/29 11:11:21;;;;;;;11.73;5.03;;;22.70;63.20;;;;;;4964472;28;20213;-59
2023/09/29 11:13:57;;;;;;;8.93;4.20;;;23.00;63.00;;;;;;4965303;28;20475;-59
2023/09/29 11:16:28;;;;;;;5.40;4.70;;;23.30;61.60;;;;;;4959620;28;20461;-58
2023/09/29 11:18:57;;;;;;;7.80;4.63;;;23.60;60.50;;;;;;4964410;28;20572;-58
2023/09/29 11:21:36;;;;;;;6.93;4.27;;;23.90;60.10;;;;;;4962152;28;20437;-61
2023/09/29 11:24:18;;;;;;;8.63;4.80;;;24.10;59.40;;;;;;4965622;28;20975;-61
2023/09/29 11:26:50;;;;;;;9.13;4.50;;;24.40;59.10;;;;;;4961907;28;21156;-60
2023/09/29 11:29:27;;;;;;;8.27;4.67;;;24.70;58.20;;;;;;4963521;28;20565;-61
2023/09/29 11:31:54;;;;;;;10.73;4.17;;;24.80;57.60;;;;;;4961960;28;20484;-62
2023/09/29 11:34:21;;;;;;;4.80;4.10;;;24.90;56.90;;;;;;4964044;28;20476;-62
2023/09/29 11:36:48;;;;;;;9.67;5.03;;;24.90;56.80;;;;;;4962218;28;20454;-62
2023/09/29 11:39:18;;;;;;;7.07;4.80;;;25.00;56.70;;;;;;4961959;28;20505;-62
2023/09/29 11:41:45;;;;;;;6.17;4.50;;;25.00;56.60;;;;;;4965688;28;20463;-62
2023/09/29 11:44:11;;;;;;;8.80;4.17;;;25.10;56.20;;;;;;4958676;28;20448;-63
2023/09/29 11:46:37;;;;;;;7.47;4.67;;;25.20;56.50;;;;;;4964631;28;20461;-62
2023/09/29 11:49:03;;;;;;;8.23;4.80;;;25.30;56.20;;;;;;4960395;28;20444;-63
2023/09/29 11:51:29;;;;;;;8.67;5.13;;;25.40;55.50;;;;;;4960063;28;20181;-61
2023/09/29 11:53:54;;;;;;;7.13;4.30;;;25.40;55.80;;;;;;4965058;28;20185;-61
2023/09/29 11:56:20;;;;;;;6.53;5.00;;;25.60;56.00;;;;;;4955394;28;20216;-61
2023/09/29 11:58:46;;;;;;;5.77;4.47;;;25.70;56.60;;;;;;4958985;28;20205;-61
2023/09/29 12:01:12;;;;;;;5.63;4.60;;;25.90;55.60;;;;;;4960343;28;20535;-60
2023/09/29 12:03:39;;;;;;;5.83;4.50;;;26.10;55.60;;;;;;4961807;28;20432;-60
2023/09/29 12:06:05;;;;;;;10.67;4.93;;;26.20;55.40;;;;;;4960713;28;20184;-61
2023/09/29 12:08:30;;;;;;;8.10;4.33;;;26.30;54.20;;;;;;4962742;28;20441;-61
2023/09/29 12:10:57;;;;;;;6.03;4.33;;;26.30;54.40;;;;;;4960230;28;20174;-63
2023/09/29 12:13:23;;;;;;;6.93;4.73;;;26.40;54.20;;;;;;4957695;28;20189;-61
2023/09/29 12:15:49;;;;;;;13.57;5.10;;;26.50;54.00;;;;;;4958976;28;20433;-61
2023/09/29 12:18:14;;;;;;;4.93;4.00;;;26.60;53.90;;;;;;4960107;28;20210;-61
2023/09/29 12:20:41;;;;;;;6.70;4.33;;;26.60;53.80;;;;;;4957070;28;20247;-62
2023/09/29 12:23:08;;;;;;;13.37;4.57;;;26.70;53.80;;;;;;4960766;28;20243;-60
2023/09/29 12:25:35;;;;;;;7.07;4.53;;;26.60;52.80;;;;;;4958234;28;20539;-60
2023/09/29 12:28:03;;;;;;;7.37;4.63;;;26.30;52.90;;;;;;4954660;28;20510;-61
2023/09/29 12:30:29;;;;;;;9.07;4.43;;;26.20;53.10;;;;;;4954514;28;20829;-62
2023/09/29 12:32:55;;;;;;;10.83;4.03;;;26.20;53.10;;;;;;4950983;28;21667;-61
2023/09/29 12:35:21;;;;;;;12.53;3.80;;;26.30;53.70;;;;;;4947298;28;20471;-61
2023/09/29 12:37:46;;;;;;;6.60;4.20;;;26.40;53.00;;;;;;4950161;28;20256;-60
2023/09/29 12:40:14;;;;;;;8.00;4.10;;;26.40;53.10;;;;;;4956817;28;20208;-64
2023/09/29 12:42:46;;;;;;;6.00;4.10;;;26.40;53.00;;;;;;4962361;28;20177;-63